»·PEaware :: N914SP KLAS-KLAX

N914SP :: KLAS-KLAX

FLIGHT INFORMATION

Flight Status: Arrived
Operator: Privately registered:
United States
More flights under this callsign
Pilot: Tim L. (7088)
Aircraft: CESSNA 680 CITATION SOVEREIGN
(C680)
More flights by this aircraft type
Origin: KLAS McCarran Intl
United States
Destination: KLAX Los Angeles Intl
United States
More flights between these airports :: More routes between these airports
Route: +BOACH6 HEC RIIVR2
File this flight plan on PilotEdge
Remarks: Practice SIDS / STARS
Altitude:
(Current/Filed)
26,000ft
Speed:
(Current/Filed)
430kts
Departed: 28-Jun-15 04:29 PM
Arrived: 28-Jun-15 05:16 PM
Distance/Time
Traveled:
205nm/0:47
Distance/Time
To Go:
Arrived

Flight Plot

Page will automatically refresh every two minutes.


Map Options




Map Legend


Flown Route
Filed Route
Departure Airport
Arrival Airport
Navaid (VOR, NDB)
Fix

Horizontal Profiles

Position Reports

Time Latitude Longitude Heading Altitude Ground
Speed
28-Jun-15 16:05 36.082568 -115.129552 90 2145ft 0kts
28-Jun-15 16:06 36.082568 -115.129552 90 2145ft 0kts
28-Jun-15 16:07 36.082568 -115.129552 90 2145ft 0kts
28-Jun-15 16:08 36.082568 -115.129552 90 2145ft 0kts
28-Jun-15 16:09 36.082568 -115.129552 90 2145ft 0kts
28-Jun-15 16:10 36.082568 -115.129552 90 2145ft 0kts
28-Jun-15 16:11 36.082568 -115.129552 90 2145ft 0kts
28-Jun-15 16:12 36.082568 -115.129552 90 2145ft 0kts
28-Jun-15 16:13 36.082568 -115.129552 90 2145ft 0kts
28-Jun-15 16:14 36.082568 -115.129552 90 2145ft 0kts
28-Jun-15 16:15 36.082568 -115.129552 90 2145ft 0kts
28-Jun-15 16:16 36.082568 -115.129552 90 2145ft 0kts
28-Jun-15 16:17 36.082568 -115.129552 90 2145ft 0kts
28-Jun-15 16:18 36.082568 -115.129552 90 2145ft 0kts
28-Jun-15 16:19 36.082568 -115.129552 90 2145ft 0kts
28-Jun-15 16:20 36.082568 -115.129552 90 2145ft 0kts
28-Jun-15 16:21 36.082568 -115.129552 90 2145ft 0kts
28-Jun-15 16:22 36.081621 -115.130307 179 2145ft 7kts
28-Jun-15 16:23 36.078427 -115.130131 138 2145ft 13kts
28-Jun-15 16:24 36.078249 -115.126169 91 2145ft 17kts
28-Jun-15 16:25 36.077394 -115.121446 147 2145ft 4kts
28-Jun-15 16:26 36.077365 -115.121424 149 2145ft 0kts
28-Jun-15 16:27 36.077022 -115.121327 176 2145ft 9kts
28-Jun-15 16:28 36.076422 -115.147835 269 2742ft 186kts
28-Jun-15 16:29 36.076460 -115.216181 268 4588ft 199kts
28-Jun-15 16:30 36.048299 -115.263985 201 6209ft 199kts
28-Jun-15 16:31 35.988975 -115.293212 200 9213ft 264kts
28-Jun-15 16:32 35.911207 -115.308745 185 11898ft 313kts
28-Jun-15 16:33 35.818632 -115.310674 174 13859ft 352kts
28-Jun-15 16:34 35.719034 -115.299405 174 15866ft 367kts
28-Jun-15 16:35 35.633947 -115.356009 226 17917ft 368kts
28-Jun-15 16:36 35.563524 -115.449261 227 19631ft 376kts
28-Jun-15 16:37 35.492143 -115.544907 227 21133ft 383kts
28-Jun-15 16:38 35.419980 -115.641368 227 22631ft 385kts
28-Jun-15 16:39 35.347075 -115.738468 228 23908ft 390kts
28-Jun-15 16:40 35.273490 -115.836305 229 25111ft 391kts
28-Jun-15 16:41 35.212335 -115.917457 229 26009ft 390kts
28-Jun-15 16:42 35.137069 -116.017029 229 26059ft 403kts
28-Jun-15 16:43 35.061357 -116.117069 228 26061ft 401kts
28-Jun-15 16:44 34.985579 -116.216970 227 26060ft 401kts
28-Jun-15 16:45 34.909467 -116.316743 228 26047ft 404kts
28-Jun-15 16:46 34.831184 -116.419028 230 26016ft 423kts
28-Jun-15 16:47 34.742569 -116.514479 221 26012ft 428kts
28-Jun-15 16:48 34.648028 -116.603568 220 25403ft 433kts
28-Jun-15 16:49 34.552803 -116.693132 220 24091ft 435kts
28-Jun-15 16:50 34.458573 -116.781424 220 22709ft 425kts
28-Jun-15 16:51 34.366721 -116.867412 219 21336ft 414kts
28-Jun-15 16:52 34.278524 -116.949633 217 20138ft 394kts
28-Jun-15 16:53 34.194761 -117.027432 217 18953ft 382kts
28-Jun-15 16:54 34.113463 -117.103696 225 17834ft 376kts
28-Jun-15 16:55 34.062804 -117.210421 241 16398ft 369kts
28-Jun-15 16:56 34.040673 -117.326976 263 14329ft 359kts
28-Jun-15 16:57 34.029896 -117.440975 264 12189ft 345kts
28-Jun-15 16:58 34.030203 -117.542321 263 11523ft 254kts
28-Jun-15 16:59 34.023628 -117.616605 263 10277ft 214kts
28-Jun-15 17:00 34.004725 -117.683679 257 9964ft 211kts
28-Jun-15 17:01 33.994756 -117.752081 261 9925ft 203kts
28-Jun-15 17:02 33.987998 -117.817544 262 9038ft 180kts
28-Jun-15 17:03 33.982573 -117.876500 263 8023ft 175kts
28-Jun-15 17:04 33.977399 -117.934845 263 7919ft 175kts
28-Jun-15 17:05 33.972255 -117.993410 263 7761ft 176kts
28-Jun-15 17:06 33.967168 -118.051315 263 6822ft 173kts
28-Jun-15 17:07 33.962169 -118.108053 263 5825ft 170kts
28-Jun-15 17:08 33.957491 -118.161033 263 4736ft 137kts
28-Jun-15 17:09 33.953576 -118.205072 263 3039ft 129kts
28-Jun-15 17:10 33.950017 -118.244896 263 1847ft 115kts
28-Jun-15 17:11 33.946580 -118.283191 263 1852ft 114kts
28-Jun-15 17:12 33.943231 -118.321470 265 1589ft 116kts
28-Jun-15 17:13 33.939668 -118.359775 264 559ft 106kts
28-Jun-15 17:14 33.936508 -118.391400 263 130ft 42kts
28-Jun-15 17:15 33.935366 -118.393680 162 130ft 4kts
28-Jun-15 17:16 33.934153 -118.393365 177 130ft 0kts

Navigation Log

Ident Type
Flight plan parsing failed, navigation log unavailable